Time;durP1;ratioP1;P1;durP2;ratioP2;P2;SDS_P1;SDS_P2;PMS_P1;PMS_P2;Temp;Humidity;BMP_temperature;BMP_pressure;BME280_temperature;BME280_humidity;BME280_pressure;Samples;Min_cycle;Max_cycle;Signal;HPM_P1;HPM_P2
2022/08/06 00:03:15;;;;;;;5.45;1.90;;;16.10;61.00;;;;;;9182040;19;20015;-64
2022/08/06 00:06:26;;;;;;;5.53;1.77;;;16.10;61.10;;;;;;9180404;19;20011;-65
2022/08/06 00:09:36;;;;;;;2.65;1.30;;;16.10;61.30;;;;;;9177781;19;20074;-64
2022/08/06 00:13:02;;;;;;;4.97;1.58;;;16.00;61.30;;;;;;9182784;19;20038;-63
2022/08/06 00:16:08;;;;;;;8.30;2.00;;;16.00;61.30;;;;;;9179582;19;20018;-65
2022/08/06 00:19:33;;;;;;;4.57;1.85;;;16.00;61.40;;;;;;9181237;19;20018;-63
2022/08/06 00:22:59;;;;;;;2.72;1.65;;;15.90;61.40;;;;;;9179115;19;20031;-63
2022/08/06 00:26:08;;;;;;;2.75;1.67;;;15.80;61.50;;;;;;9180811;19;20006;-62
2022/08/06 00:29:13;;;;;;;4.30;1.52;;;15.80;61.60;;;;;;9180738;19;20019;-63
2022/08/06 00:32:36;;;;;;;7.30;1.75;;;15.80;61.70;;;;;;9181952;19;20436;-63
2022/08/06 00:35:42;;;;;;;5.35;1.70;;;15.80;61.70;;;;;;9179382;19;20010;-63
2022/08/06 00:38:49;;;;;;;3.60;1.35;;;15.70;61.80;;;;;;9179964;19;20022;-64
2022/08/06 00:41:58;;;;;;;3.80;1.90;;;15.70;61.90;;;;;;9179620;19;20468;-64
2022/08/06 00:45:04;;;;;;;3.70;1.60;;;15.60;62.00;;;;;;9180771;19;20018;-61
2022/08/06 00:48:14;;;;;;;6.07;1.52;;;15.60;62.00;;;;;;9179124;19;20491;-62
2022/08/06 00:51:39;;;;;;;3.42;1.33;;;15.60;62.10;;;;;;9179170;19;20496;-62
2022/08/06 00:54:56;;;;;;;7.20;1.90;;;15.60;62.20;;;;;;9180406;19;20064;-63
2022/08/06 00:58:09;;;;;;;5.13;1.33;;;15.50;62.20;;;;;;9178472;19;20472;-62
2022/08/06 01:01:17;;;;;;;4.60;1.25;;;15.50;62.40;;;;;;9176506;19;20025;-63
2022/08/06 01:04:22;;;;;;;2.55;1.42;;;15.50;62.40;;;;;;9179595;19;20018;-63
2022/08/06 01:07:31;;;;;;;8.18;1.48;;;15.40;62.50;;;;;;9178250;19;20018;-62
2022/08/06 01:10:56;;;;;;;7.68;1.50;;;15.40;62.60;;;;;;9173059;19;20046;-64
2022/08/06 01:14:04;;;;;;;6.55;1.70;;;15.40;62.60;;;;;;9179478;19;20022;-63
2022/08/06 01:17:22;;;;;;;5.60;1.65;;;15.40;62.70;;;;;;9178060;19;20476;-63
2022/08/06 01:20:36;;;;;;;;;;;15.30;63.50;;;;;;9180663;19;20017;-63
2022/08/06 01:24:21;;;;;;;5.22;1.63;;;15.30;62.60;;;;;;9178183;19;19923;-64
2022/08/06 01:27:40;;;;;;;6.38;2.10;;;15.20;62.70;;;;;;9177483;19;20022;-62
2022/08/06 01:30:52;;;;;;;4.15;1.65;;;15.20;62.90;;;;;;9179647;19;20638;-63
2022/08/06 01:34:03;;;;;;;5.15;1.52;;;15.20;62.90;;;;;;9180780;19;20370;-63
2022/08/06 01:37:14;;;;;;;7.53;1.55;;;15.20;62.90;;;;;;9186693;19;20094;-60
2022/08/06 01:40:24;;;;;;;5.32;1.67;;;15.10;63.00;;;;;;9186851;19;20479;-62
2022/08/06 01:43:35;;;;;;;3.13;1.60;;;15.10;63.10;;;;;;9186944;19;20018;-62
2022/08/06 01:47:08;;;;;;;6.30;1.67;;;15.10;63.20;;;;;;9186438;19;20022;-64
2022/08/06 01:50:24;;;;;;;3.75;1.80;;;15.00;63.20;;;;;;9185637;19;20117;-63
2022/08/06 01:53:36;;;;;;;4.55;1.50;;;15.00;63.20;;;;;;9185965;19;20014;-63
2022/08/06 01:57:04;;;;;;;3.72;1.60;;;15.00;63.30;;;;;;9187364;19;20018;-62
2022/08/06 02:00:15;;;;;;;4.25;1.60;;;14.90;63.30;;;;;;9185620;19;20014;-63
2022/08/06 02:03:27;;;;;;;3.20;1.65;;;14.90;63.40;;;;;;9186469;19;20102;-64
2022/08/06 02:06:53;;;;;;;3.80;1.70;;;14.90;63.50;;;;;;9186881;19;20491;-62
2022/08/06 02:09:59;;;;;;;4.50;1.42;;;14.90;63.50;;;;;;9182837;19;20025;-63
2022/08/06 02:13:05;;;;;;;3.92;1.42;;;14.80;63.60;;;;;;9185150;19;20021;-65
2022/08/06 02:16:14;;;;;;;5.35;1.80;;;14.80;64.40;;;;;;9186257;19;20006;-63
2022/08/06 02:19:22;;;;;;;3.65;1.83;;;14.80;63.80;;;;;;9186676;19;20026;-63
2022/08/06 02:22:39;;;;;;;4.68;1.50;;;14.70;63.80;;;;;;9183886;19;20021;-62
2022/08/06 02:25:48;;;;;;;4.88;2.42;;;14.70;63.90;;;;;;9184369;19;20017;-63
2022/08/06 02:29:00;;;;;;;3.33;1.75;;;14.70;63.90;;;;;;9184078;19;20033;-64
2022/08/06 02:32:08;;;;;;;7.43;2.97;;;14.60;64.00;;;;;;9184514;19;20325;-63
2022/08/06 02:35:20;;;;;;;3.60;1.60;;;14.60;64.10;;;;;;9185802;19;20379;-62
2022/08/06 02:38:34;;;;;;;5.55;1.63;;;14.60;64.10;;;;;;9183995;19;20472;-63
2022/08/06 02:41:56;;;;;;;3.22;2.15;;;14.50;64.20;;;;;;9182478;19;20014;-63
2022/08/06 02:45:03;;;;;;;;;;;14.50;64.30;;;;;;9184358;19;20010;-62
2022/08/06 02:48:17;;;;;;;4.90;1.63;;;14.50;64.10;;;;;;9183525;19;19923;-62
2022/08/06 02:51:40;;;;;;;3.00;1.40;;;14.40;64.10;;;;;;9183547;19;20082;-63
2022/08/06 02:55:13;;;;;;;3.63;1.45;;;14.40;64.20;;;;;;9184126;19;20471;-64
2022/08/06 02:58:25;;;;;;;2.67;1.85;;;14.40;64.30;;;;;;9184658;19;20018;-64
2022/08/06 03:01:44;;;;;;;2.13;1.30;;;14.30;64.40;;;;;;9181703;19;20035;-62
2022/08/06 03:04:54;;;;;;;1.40;1.30;;;14.30;64.40;;;;;;9183605;19;20019;-63
2022/08/06 03:08:03;;;;;;;3.17;1.63;;;14.30;64.50;;;;;;9183575;19;20014;-61
2022/08/06 03:11:10;;;;;;;7.53;1.80;;;14.30;64.50;;;;;;9178781;19;20021;-63
2022/08/06 03:14:18;;;;;;;1.98;1.60;;;14.20;64.60;;;;;;9184555;19;20366;-62
2022/08/06 03:17:45;;;;;;;2.60;1.50;;;14.20;64.70;;;;;;9182343;19;20019;-65
2022/08/06 03:20:54;;;;;;;3.88;1.80;;;14.10;64.70;;;;;;9182046;19;20014;-62
2022/08/06 03:24:05;;;;;;;2.97;1.77;;;14.10;64.80;;;;;;9184924;19;20010;-64
2022/08/06 03:27:12;;;;;;;3.33;1.92;;;14.00;64.80;;;;;;9183240;19;20510;-64
2022/08/06 03:30:25;;;;;;;6.78;2.15;;;14.00;64.90;;;;;;9182393;19;20548;-62
2022/08/06 03:33:38;;;;;;;5.28;2.03;;;14.00;65.00;;;;;;9181897;19;20015;-63
2022/08/06 03:37:03;;;;;;;5.88;2.00;;;13.90;65.00;;;;;;9182908;19;20018;-64
2022/08/06 03:40:14;;;;;;;7.50;2.40;;;13.90;65.20;;;;;;9183619;19;20022;-64
2022/08/06 03:43:23;;;;;;;4.68;2.10;;;13.90;65.10;;;;;;9178754;19;20018;-63
2022/08/06 03:46:36;;;;;;;6.45;1.80;;;13.90;65.20;;;;;;9181514;19;20044;-64
2022/08/06 03:49:44;;;;;;;5.13;2.00;;;13.90;65.30;;;;;;9181977;19;20497;-61
2022/08/06 03:52:58;;;;;;;3.85;1.75;;;13.80;65.30;;;;;;9180735;19;20018;-62
2022/08/06 03:56:06;;;;;;;5.65;1.92;;;13.70;65.40;;;;;;9180986;19;20048;-65
2022/08/06 03:59:21;;;;;;;2.15;1.80;;;13.80;65.40;;;;;;9181065;19;20011;-63
2022/08/06 04:02:39;;;;;;;2.75;1.67;;;13.70;65.40;;;;;;9181703;19;20047;-63
2022/08/06 04:05:51;;;;;;;2.35;1.75;;;13.70;65.50;;;;;;9178906;19;20022;-63
2022/08/06 04:09:02;;;;;;;4.40;1.92;;;13.60;65.40;;;;;;9182519;19;20018;-63
2022/08/06 04:12:10;;;;;;;4.20;2.30;;;13.60;65.60;;;;;;9180882;19;20017;-63
2022/08/06 04:15:35;;;;;;;4.80;1.80;;;13.60;65.60;;;;;;9179852;19;20046;-62
2022/08/06 04:18:42;;;;;;;3.40;1.45;;;13.60;65.60;;;;;;9179180;19;20014;-62
2022/08/06 04:21:53;;;;;;;5.05;1.70;;;13.50;65.60;;;;;;9181448;19;20093;-63
2022/08/06 04:25:21;;;;;;;2.47;1.67;;;13.50;65.60;;;;;;9181261;19;20022;-63
2022/08/06 04:28:28;;;;;;;2.80;1.90;;;13.50;65.80;;;;;;9179944;19;20014;-64
2022/08/06 04:31:35;;;;;;;6.82;2.33;;;13.40;65.70;;;;;;9180709;19;20460;-62
2022/08/06 04:35:02;;;;;;;4.60;1.88;;;13.40;65.80;;;;;;9181415;19;20468;-62
2022/08/06 04:38:27;;;;;;;6.07;1.92;;;13.40;65.80;;;;;;9179108;19;20015;-63
2022/08/06 04:41:38;;;;;;;2.08;1.88;;;13.40;65.90;;;;;;9177167;19;20020;-65
2022/08/06 04:44:44;;;;;;;3.60;1.80;;;13.40;66.10;;;;;;9180751;19;20020;-62
2022/08/06 04:47:51;;;;;;;7.15;2.40;;;13.30;66.00;;;;;;9179962;19;20033;-63
2022/08/06 04:50:56;;;;;;;4.43;1.98;;;13.30;66.20;;;;;;9179301;19;20014;-63
2022/08/06 04:54:01;;;;;;;2.42;1.90;;;13.40;66.30;;;;;;9178040;19;20023;-63
2022/08/06 04:57:10;;;;;;;3.28;2.03;;;13.30;66.30;;;;;;9180102;19;20019;-64
2022/08/06 05:00:32;;;;;;;3.97;2.67;;;13.30;66.50;;;;;;9180409;19;20019;-65
2022/08/06 05:03:38;;;;;;;5.85;2.00;;;13.30;66.40;;;;;;9174111;19;20022;-63
2022/08/06 05:07:13;;;;;;;5.82;2.10;;;13.30;66.50;;;;;;9173966;19;20580;-63
2022/08/06 05:10:22;;;;;;;3.42;1.52;;;13.30;66.60;;;;;;9174963;19;20022;-63
2022/08/06 05:13:40;;;;;;;3.65;2.22;;;13.30;66.70;;;;;;9181051;19;20011;-61
2022/08/06 05:16:48;;;;;;;6.50;2.08;;;13.30;67.00;;;;;;9183676;19;20077;-66
2022/08/06 05:20:03;;;;;;;5.13;2.28;;;13.30;66.80;;;;;;9182146;19;20630;-67
2022/08/06 05:23:14;;;;;;;2.92;2.45;;;13.30;67.00;;;;;;9180938;19;20015;-66
2022/08/06 05:26:25;;;;;;;5.90;2.33;;;13.40;67.10;;;;;;9183222;19;20019;-66
2022/08/06 05:29:32;;;;;;;8.02;2.40;;;13.40;67.10;;;;;;9182165;19;20014;-66
2022/08/06 05:32:44;;;;;;;5.13;3.00;;;13.40;67.20;;;;;;9185879;19;20025;-67
2022/08/06 05:35:55;;;;;;;8.95;2.60;;;13.40;67.30;;;;;;9185631;19;20489;-66
2022/08/06 05:39:07;;;;;;;8.32;3.03;;;13.40;67.30;;;;;;9186530;19;20010;-66
2022/08/06 05:42:15;;;;;;;6.18;2.92;;;13.50;67.50;;;;;;9188039;19;20015;-66
2022/08/06 05:45:43;;;;;;;9.50;3.10;;;13.50;67.50;;;;;;9186393;19;20049;-66
2022/08/06 05:48:55;;;;;;;6.03;3.17;;;13.60;67.90;;;;;;9186957;19;20021;-66
2022/08/06 05:52:07;;;;;;;9.18;2.90;;;13.60;67.90;;;;;;9186271;19;20029;-67
2022/08/06 05:55:24;;;;;;;4.78;3.10;;;13.70;67.90;;;;;;9186764;19;20015;-66
2022/08/06 05:58:47;;;;;;;6.05;3.33;;;13.80;68.30;;;;;;9186079;19;20028;-67
2022/08/06 06:02:01;;;;;;;7.78;4.05;;;13.90;68.10;;;;;;9185210;19;20510;-67
2022/08/06 06:05:09;;;;;;;10.80;3.35;;;14.00;68.30;;;;;;9184173;19;20751;-67
2022/08/06 06:08:34;;;;;;;8.65;3.50;;;14.10;68.40;;;;;;9187345;19;20081;-66
2022/08/06 06:11:59;;;;;;;8.48;4.90;;;14.30;68.40;;;;;;9181670;19;20022;-67
2022/08/06 06:15:09;;;;;;;9.35;4.78;;;14.50;68.50;;;;;;9185185;19;20015;-67
2022/08/06 06:18:50;;;;;;;5.03;3.05;;;14.70;68.60;;;;;;9186144;19;20018;-67
2022/08/06 06:22:11;;;;;;;7.93;2.70;;;14.90;68.80;;;;;;9184172;19;20033;-67
2022/08/06 06:25:26;;;;;;;9.63;2.78;;;15.10;68.70;;;;;;9186560;19;20010;-66
2022/08/06 06:28:42;;;;;;;6.63;2.83;;;15.40;68.70;;;;;;9184485;19;20022;-67
2022/08/06 06:32:01;;;;;;;9.43;4.00;;;15.60;68.70;;;;;;9185929;19;20196;-67
2022/08/06 06:35:21;;;;;;;19.02;4.03;;;15.90;69.00;;;;;;9186732;19;20045;-67
2022/08/06 06:38:39;;;;;;;5.85;1.95;;;16.20;68.50;;;;;;9186344;19;20042;-67
2022/08/06 06:41:53;;;;;;;3.38;1.60;;;16.40;68.40;;;;;;9185444;19;20010;-66
2022/08/06 06:45:12;;;;;;;6.10;1.52;;;16.70;68.20;;;;;;9180669;19;20105;-67
2022/08/06 06:48:46;;;;;;;6.72;1.52;;;17.00;68.10;;;;;;9185257;19;20022;-67
2022/08/06 06:51:58;;;;;;;2.85;1.65;;;17.30;67.90;;;;;;9185195;19;20052;-67
2022/08/06 06:55:24;;;;;;;4.55;1.52;;;17.50;67.80;;;;;;9183615;19;20006;-66
2022/08/06 06:58:53;;;;;;;4.30;1.17;;;17.80;68.20;;;;;;9185132;19;20101;-67
2022/08/06 07:02:00;;;;;;;3.13;1.23;;;18.10;67.40;;;;;;9183910;19;20019;-68
2022/08/06 07:05:17;;;;;;;4.93;1.50;;;18.40;67.20;;;;;;9183240;19;20034;-67
2022/08/06 07:08:51;;;;;;;4.05;1.00;;;18.70;66.90;;;;;;9184702;19;20109;-67
2022/08/06 07:11:58;;;;;;;4.93;0.82;;;19.00;66.70;;;;;;9180548;19;20018;-66
2022/08/06 07:15:10;;;;;;;5.55;0.93;;;19.30;66.50;;;;;;9182494;19;20030;-67
2022/08/06 07:18:24;;;;;;;2.13;0.85;;;19.50;66.10;;;;;;9182357;19;20021;-66
2022/08/06 07:21:37;;;;;;;3.65;0.55;;;19.80;65.90;;;;;;9184892;19;20013;-68
2022/08/06 07:24:46;;;;;;;4.43;0.60;;;20.00;65.60;;;;;;9180759;19;20030;-67
2022/08/06 07:27:53;;;;;;;1.27;0.60;;;20.20;65.20;;;;;;9184615;19;20110;-67
2022/08/06 07:31:04;;;;;;;3.70;1.05;;;20.40;65.00;;;;;;9182616;19;20007;-67
2022/08/06 07:34:13;;;;;;;;;;;20.60;64.60;;;;;;9182312;19;20494;-67
2022/08/06 07:37:22;;;;;;;1.92;0.52;;;20.90;64.70;;;;;;9184341;19;19934;-68
2022/08/06 07:40:32;;;;;;;1.00;0.40;;;21.10;64.40;;;;;;9183551;19;20131;-67
2022/08/06 07:43:45;;;;;;;2.08;0.60;;;21.20;63.90;;;;;;9180792;19;20011;-67
2022/08/06 07:47:00;;;;;;;3.00;0.52;;;21.40;63.60;;;;;;9183379;19;20483;-67
2022/08/06 07:50:27;;;;;;;0.70;0.20;;;21.60;63.40;;;;;;9181695;19;20026;-67
2022/08/06 07:53:38;;;;;;;1.50;0.22;;;21.80;63.10;;;;;;9181946;19;20021;-68
2022/08/06 07:57:07;;;;;;;3.88;0.50;;;22.00;62.70;;;;;;9181336;19;20011;-67
2022/08/06 08:00:19;;;;;;;3.05;0.40;;;22.20;62.40;;;;;;9180601;19;20491;-67
2022/08/06 08:07:06;;;;;;;1.17;0.32;;;22.60;61.80;;;;;;9179431;19;20503;-67
2022/08/06 08:10:20;;;;;;;;;;;22.70;61.50;;;;;;9177638;19;20082;-67
2022/08/06 08:13:36;;;;;;;3.95;1.30;;;22.80;61.60;;;;;;9181623;19;20399;-68
2022/08/06 08:16:49;;;;;;;6.22;1.10;;;23.00;61.30;;;;;;9181215;19;20031;-68
2022/08/06 08:19:55;;;;;;;1.38;0.80;;;23.10;60.90;;;;;;9179866;19;20019;-66
2022/08/06 08:23:05;;;;;;;2.72;0.70;;;23.30;60.60;;;;;;9181760;19;20018;-67
2022/08/06 08:26:29;;;;;;;2.60;0.43;;;23.40;60.30;;;;;;9180287;19;20014;-67
2022/08/06 08:29:58;;;;;;;5.07;0.55;;;23.50;60.00;;;;;;9179388;19;20022;-68
2022/08/06 08:33:07;;;;;;;2.65;0.47;;;23.70;59.70;;;;;;9179565;19;20044;-68
2022/08/06 08:36:23;;;;;;;3.55;0.65;;;23.80;59.50;;;;;;9180333;19;20112;-67
2022/08/06 08:39:34;;;;;;;2.28;0.63;;;23.90;59.40;;;;;;9179883;19;20078;-67
2022/08/06 08:42:45;;;;;;;2.88;0.57;;;24.00;59.10;;;;;;9180486;19;20010;-66
2022/08/06 08:45:57;;;;;;;1.20;0.70;;;24.10;58.70;;;;;;9177168;19;20094;-66
2022/08/06 08:49:04;;;;;;;2.40;0.60;;;24.30;58.40;;;;;;9180293;19;20014;-67
2022/08/06 08:52:19;;;;;;;3.22;0.70;;;24.40;58.20;;;;;;9180658;19;20018;-67
2022/08/06 08:55:30;;;;;;;1.38;0.45;;;24.50;57.90;;;;;;9181411;19;20468;-68
2022/08/06 08:58:56;;;;;;;2.75;0.90;;;24.60;57.50;;;;;;9179395;19;20369;-69
2022/08/06 09:02:29;;;;;;;2.30;0.50;;;24.60;57.40;;;;;;9180645;19;20427;-67
2022/08/06 09:05:36;;;;;;;2.35;0.70;;;24.70;57.10;;;;;;9176904;19;20025;-68
2022/08/06 09:08:54;;;;;;;2.58;0.52;;;24.80;57.10;;;;;;9179096;19;20380;-67
2022/08/06 09:12:08;;;;;;;0.82;0.30;;;24.90;57.00;;;;;;9178230;19;20018;-67
2022/08/06 09:15:33;;;;;;;3.22;0.50;;;25.00;56.80;;;;;;9180176;19;20022;-67
2022/08/06 09:18:47;;;;;;;5.25;0.68;;;25.00;56.50;;;;;;9180037;19;20486;-66
2022/08/06 09:21:54;;;;;;;4.45;0.80;;;25.10;56.00;;;;;;9179346;19;20027;-67
2022/08/06 09:25:02;;;;;;;2.78;0.47;;;25.20;55.90;;;;;;9176541;19;20014;-67
2022/08/06 09:28:12;;;;;;;3.28;0.47;;;25.30;55.80;;;;;;9178598;19;20022;-67
2022/08/06 09:31:20;;;;;;;3.88;0.50;;;25.30;55.50;;;;;;9180163;19;20011;-66
2022/08/06 09:34:51;;;;;;;5.55;0.60;;;25.40;55.30;;;;;;9178235;19;20487;-68
2022/08/06 09:38:03;;;;;;;2.35;0.65;;;25.40;55.10;;;;;;9179792;19;20006;-66
2022/08/06 09:41:13;;;;;;;3.33;0.40;;;25.50;54.90;;;;;;9180068;19;20022;-67
2022/08/06 09:44:19;;;;;;;2.30;0.45;;;25.50;54.70;;;;;;9176781;19;20045;-68
2022/08/06 09:47:45;;;;;;;2.75;0.70;;;25.50;54.50;;;;;;9177599;19;20010;-67
2022/08/06 09:51:07;;;;;;;2.03;0.50;;;25.60;54.40;;;;;;9179374;19;20014;-68
2022/08/06 09:54:20;;;;;;;2.78;0.45;;;25.70;54.20;;;;;;9178068;19;20015;-66
2022/08/06 09:57:42;;;;;;;1.67;0.50;;;25.70;54.20;;;;;;9187612;19;20023;-67
2022/08/06 10:00:47;;;;;;;1.30;0.60;;;25.80;53.90;;;;;;9185840;19;20484;-69
2022/08/06 10:03:57;;;;;;;4.18;0.50;;;26.00;53.90;;;;;;9185245;19;20022;-66
2022/08/06 10:07:16;;;;;;;6.68;0.68;;;26.00;53.50;;;;;;9186966;19;20030;-68
2022/08/06 10:10:22;;;;;;;2.08;0.52;;;26.10;53.20;;;;;;9181997;19;20364;-68
2022/08/06 10:13:50;;;;;;;2.60;0.93;;;26.10;53.10;;;;;;9185903;19;20082;-68
2022/08/06 10:17:10;;;;;;;3.47;0.40;;;26.10;52.90;;;;;;9184693;19;20045;-67
2022/08/06 10:20:19;;;;;;;0.75;0.35;;;26.10;52.40;;;;;;9185962;19;20472;-67
2022/08/06 10:23:27;;;;;;;2.78;0.45;;;26.10;52.70;;;;;;9185624;19;20472;-66
2022/08/06 10:26:44;;;;;;;3.15;0.45;;;26.10;52.50;;;;;;9182154;19;20039;-67
2022/08/06 10:29:53;;;;;;;0.55;0.38;;;26.10;52.50;;;;;;9185005;19;20014;-68
2022/08/06 10:33:04;;;;;;;3.17;0.80;;;26.10;52.20;;;;;;9184047;19;20018;-66
2022/08/06 10:36:27;;;;;;;3.15;0.43;;;26.20;52.00;;;;;;9186061;19;20494;-68
2022/08/06 10:39:48;;;;;;;3.60;0.40;;;26.30;51.80;;;;;;9184886;19;20014;-68
2022/08/06 10:43:19;;;;;;;2.15;0.50;;;26.30;51.60;;;;;;9183661;19;20056;-67
2022/08/06 10:46:25;;;;;;;1.85;0.40;;;26.40;51.50;;;;;;9181506;19;20128;-68
2022/08/06 10:49:33;;;;;;;1.30;0.50;;;26.50;51.40;;;;;;9184462;19;20024;-67
2022/08/06 10:52:58;;;;;;;4.13;0.68;;;26.50;51.00;;;;;;9185877;19;20036;-69
2022/08/06 10:56:10;;;;;;;2.22;0.52;;;26.60;51.00;;;;;;9183390;19;20070;-69
2022/08/06 10:59:17;;;;;;;2.65;0.50;;;26.60;50.70;;;;;;9183555;19;20033;-67
2022/08/06 11:02:51;;;;;;;4.55;0.73;;;26.60;50.80;;;;;;9183867;19;20198;-67
2022/08/06 11:06:16;;;;;;;2.55;0.93;;;26.60;50.50;;;;;;9179544;19;20018;-68
2022/08/06 11:10:01;;;;;;;0.93;0.38;;;26.60;50.50;;;;;;9181459;19;20082;-66
2022/08/06 11:13:19;;;;;;;0.82;0.30;;;26.70;50.30;;;;;;9183872;19;20600;-67
2022/08/06 11:16:25;;;;;;;1.00;0.35;;;26.70;50.30;;;;;;9182710;19;20014;-67
2022/08/06 11:19:46;;;;;;;1.63;0.60;;;26.80;50.30;;;;;;9182479;19;20357;-67
2022/08/06 11:23:06;;;;;;;2.17;0.80;;;26.90;49.90;;;;;;9184615;19;20018;-68
2022/08/06 11:26:38;;;;;;;2.22;0.50;;;27.10;50.00;;;;;;9182858;19;20018;-68
2022/08/06 11:30:13;;;;;;;4.93;0.90;;;27.10;49.40;;;;;;9184972;19;20011;-68
2022/08/06 11:33:21;;;;;;;1.20;0.45;;;27.10;49.20;;;;;;9182370;19;20025;-68
2022/08/06 11:36:28;;;;;;;1.60;0.50;;;27.20;49.30;;;;;;9183830;19;20375;-68
2022/08/06 11:40:15;;;;;;;3.05;0.70;;;27.30;49.30;;;;;;9184201;19;20484;-68
2022/08/06 11:43:51;;;;;;;4.32;0.82;;;27.30;48.80;;;;;;9181865;19;20010;-68
2022/08/06 11:47:18;;;;;;;5.53;1.00;;;27.30;48.90;;;;;;9180064;19;20033;-68
2022/08/06 11:50:40;;;;;;;2.25;0.60;;;27.30;49.10;;;;;;9182130;19;20013;-68
2022/08/06 11:54:12;;;;;;;1.73;0.85;;;27.30;48.90;;;;;;9181743;19;20014;-67
2022/08/06 11:57:26;;;;;;;1.48;0.57;;;27.30;48.30;;;;;;9180730;19;20022;-68
2022/08/06 12:00:59;;;;;;;1.65;0.90;;;27.40;48.30;;;;;;9181360;19;20015;-68
2022/08/06 12:04:49;;;;;;;1.40;0.70;;;27.40;48.20;;;;;;9180533;19;20010;-68
2022/08/06 12:08:32;;;;;;;3.38;0.98;;;27.40;48.20;;;;;;9183020;19;20119;-67
2022/08/06 12:11:47;;;;;;;2.33;0.90;;;27.40;47.80;;;;;;9176613;19;20029;-66
2022/08/06 12:14:57;;;;;;;4.95;0.60;;;27.40;48.20;;;;;;9182761;19;20618;-67
2022/08/06 12:18:14;;;;;;;2.60;0.70;;;27.30;47.90;;;;;;9180865;19;20045;-67
2022/08/06 12:21:24;;;;;;;1.27;0.68;;;27.30;47.90;;;;;;9183320;19;20018;-67
2022/08/06 12:24:41;;;;;;;2.60;1.13;;;27.30;48.00;;;;;;9181999;19;20893;-67
2022/08/06 12:28:07;;;;;;;3.05;0.75;;;27.20;47.80;;;;;;9180784;19;20475;-67
2022/08/06 12:31:29;;;;;;;1.50;0.77;;;27.10;47.70;;;;;;9182110;19;20017;-67
2022/08/06 12:34:41;;;;;;;0.75;0.70;;;27.00;47.50;;;;;;9180111;19;20017;-67
2022/08/06 12:38:03;;;;;;;2.55;0.90;;;26.90;47.60;;;;;;9180271;19;20924;-66
2022/08/06 12:41:11;;;;;;;4.00;1.08;;;26.80;47.70;;;;;;9180343;19;20040;-67
2022/08/06 12:44:34;;;;;;;2.38;0.93;;;26.80;47.70;;;;;;9180728;19;20014;-66
2022/08/06 12:48:04;;;;;;;1.33;0.93;;;26.80;47.40;;;;;;9180901;19;20043;-67
2022/08/06 12:51:15;;;;;;;2.53;1.02;;;26.70;47.50;;;;;;9181243;19;20471;-66
2022/08/06 12:54:21;;;;;;;3.65;0.90;;;26.70;47.60;;;;;;9181398;19;20014;-66
2022/08/06 12:57:33;;;;;;;1.58;0.70;;;26.60;47.50;;;;;;9178956;19;20040;-67
2022/08/06 13:01:01;;;;;;;8.20;1.33;;;26.50;47.50;;;;;;9180187;19;20019;-66
2022/08/06 13:04:13;;;;;;;1.92;0.95;;;26.50;47.50;;;;;;9178935;19;20024;-66
2022/08/06 13:07:22;;;;;;;2.08;0.85;;;26.50;47.40;;;;;;9177921;19;20014;-66
2022/08/06 13:10:28;;;;;;;1.48;0.90;;;26.50;47.20;;;;;;9174519;19;20488;-67
2022/08/06 13:13:41;;;;;;;2.70;1.30;;;26.50;47.10;;;;;;9178693;19;20705;-66
2022/08/06 13:17:14;;;;;;;3.30;1.30;;;26.50;47.10;;;;;;9179798;19;20027;-66
2022/08/06 13:20:44;;;;;;;3.30;1.20;;;26.50;46.90;;;;;;9178301;19;20021;-66
2022/08/06 13:23:52;;;;;;;3.22;1.13;;;26.40;46.90;;;;;;9178185;19;20014;-66
2022/08/06 13:26:58;;;;;;;2.42;0.70;;;26.30;46.90;;;;;;9177066;19;20010;-67
2022/08/06 13:30:09;;;;;;;3.28;0.80;;;26.30;46.90;;;;;;9180499;19;20003;-66
2022/08/06 13:33:36;;;;;;;0.75;0.57;;;26.20;46.70;;;;;;9186836;19;20010;-66
2022/08/06 13:37:01;;;;;;;1.83;0.90;;;26.20;46.70;;;;;;9186561;19;20025;-66
2022/08/06 13:40:09;;;;;;;3.70;1.30;;;26.20;46.70;;;;;;9188452;19;20021;-67
2022/08/06 13:43:15;;;;;;;5.88;1.33;;;26.20;46.90;;;;;;9186342;19;20014;-66
2022/08/06 13:46:45;;;;;;;1.65;1.20;;;26.20;47.00;;;;;;9186661;19;20018;-66
2022/08/06 13:49:55;;;;;;;4.30;1.40;;;26.10;47.00;;;;;;9186225;19;20044;-68
2022/08/06 13:53:11;;;;;;;4.03;1.20;;;26.10;47.30;;;;;;9186261;19;20038;-66
2022/08/06 13:56:17;;;;;;;1.45;1.00;;;26.00;47.20;;;;;;9186297;19;20014;-66
2022/08/06 13:59:35;;;;;;;2.97;1.30;;;26.00;47.30;;;;;;9187963;19;20101;-66
2022/08/06 14:02:47;;;;;;;3.47;1.20;;;26.00;47.40;;;;;;9185284;19;20066;-66
2022/08/06 14:05:52;;;;;;;2.40;1.42;;;26.00;47.40;;;;;;9183417;19;20010;-66
2022/08/06 14:09:00;;;;;;;3.60;1.60;;;26.00;47.40;;;;;;9187807;19;20011;-66
2022/08/06 14:12:07;;;;;;;2.42;1.40;;;26.00;47.30;;;;;;9185675;19;20006;-67
2022/08/06 14:15:12;;;;;;;4.72;1.30;;;26.00;47.40;;;;;;9185880;19;20350;-66
2022/08/06 14:18:20;;;;;;;2.33;1.20;;;26.00;47.30;;;;;;9185129;19;20033;-66
2022/08/06 14:21:32;;;;;;;1.40;1.30;;;26.00;47.20;;;;;;9185818;19;20014;-66
2022/08/06 14:24:46;;;;;;;5.85;1.27;;;26.00;47.30;;;;;;9185061;19;20025;-66
2022/08/06 14:27:57;;;;;;;4.20;1.50;;;26.00;47.30;;;;;;9184032;19;20013;-65
2022/08/06 14:31:02;;;;;;;1.88;1.30;;;26.00;47.40;;;;;;9185217;19;20332;-66
2022/08/06 14:34:12;;;;;;;5.30;1.30;;;26.00;47.30;;;;;;9186881;19;20041;-65
2022/08/06 14:37:19;;;;;;;2.42;1.08;;;26.00;47.30;;;;;;9184933;19;20387;-66
2022/08/06 14:47:26;;;;;;;2.60;1.25;;;26.10;47.20;;;;;;9182532;19;20021;-66
2022/08/06 14:50:51;;;;;;;2.22;1.30;;;26.00;47.10;;;;;;9180525;19;20359;-66
2022/08/06 14:53:56;;;;;;;2.83;1.30;;;26.00;47.10;;;;;;9184034;19;20030;-67
2022/08/06 14:57:05;;;;;;;3.30;1.40;;;26.00;47.10;;;;;;9180181;19;20011;-67
2022/08/06 15:00:20;;;;;;;3.67;1.45;;;25.90;46.90;;;;;;9182821;19;20010;-66
2022/08/06 15:03:41;;;;;;;6.32;1.45;;;25.80;47.00;;;;;;9182432;19;20017;-65
2022/08/06 15:06:47;;;;;;;4.90;2.30;;;25.70;47.10;;;;;;9182827;19;20021;-66
2022/08/06 15:09:58;;;;;;;1.85;1.33;;;25.70;47.10;;;;;;9179716;19;20018;-66
2022/08/06 15:13:12;;;;;;;3.42;1.30;;;25.60;47.10;;;;;;9183064;19;20884;-66
2022/08/06 15:16:18;;;;;;;2.30;1.00;;;25.50;47.10;;;;;;9183090;19;20018;-66
2022/08/06 15:19:42;;;;;;;2.80;1.38;;;25.50;47.10;;;;;;9184795;19;20086;-66
2022/08/06 15:22:55;;;;;;;2.00;1.15;;;25.40;47.10;;;;;;9184921;19;20475;-66
2022/08/06 15:26:01;;;;;;;1.73;1.38;;;25.40;47.10;;;;;;9184896;19;20014;-66
2022/08/06 15:29:29;;;;;;;3.58;1.15;;;25.40;47.00;;;;;;9182372;19;20025;-67
2022/08/06 15:32:38;;;;;;;1.60;0.93;;;25.40;46.90;;;;;;9181732;19;20003;-67
2022/08/06 15:35:43;;;;;;;2.67;1.30;;;25.40;46.80;;;;;;9181849;19;20037;-66
2022/08/06 15:39:02;;;;;;;1.17;1.00;;;25.40;46.70;;;;;;9182066;19;20029;-66
2022/08/06 15:42:14;;;;;;;2.50;1.25;;;25.50;46.70;;;;;;9181994;19;20007;-66
2022/08/06 15:45:26;;;;;;;2.28;1.10;;;25.40;46.50;;;;;;9182928;19;20014;-66
2022/08/06 15:48:51;;;;;;;3.78;0.90;;;25.50;46.60;;;;;;9179646;19;20019;-66
2022/08/06 15:51:59;;;;;;;3.55;1.02;;;25.50;46.50;;;;;;9180523;19;20018;-67
2022/08/06 15:55:07;;;;;;;4.68;1.23;;;25.40;46.40;;;;;;9179771;19;20082;-66
2022/08/06 15:58:21;;;;;;;1.95;1.23;;;25.40;46.30;;;;;;9181329;19;20800;-66
2022/08/06 16:01:37;;;;;;;4.55;2.40;;;25.30;46.30;;;;;;9180909;19;20030;-67
2022/08/06 16:05:02;;;;;;;6.15;1.90;;;25.30;46.30;;;;;;9181253;19;20054;-68
2022/08/06 16:08:09;;;;;;;2.63;1.10;;;25.10;46.40;;;;;;9180124;19;20023;-66
2022/08/06 16:11:34;;;;;;;3.25;1.77;;;25.10;46.40;;;;;;9178171;19;20370;-66
2022/08/06 16:14:56;;;;;;;3.28;1.20;;;25.00;46.50;;;;;;9182838;19;20018;-66
2022/08/06 16:18:05;;;;;;;2.67;1.55;;;24.90;46.60;;;;;;9179770;19;20035;-66
2022/08/06 16:21:30;;;;;;;2.45;1.27;;;24.80;46.60;;;;;;9180538;19;20049;-67
2022/08/06 16:24:38;;;;;;;3.67;1.10;;;24.70;46.70;;;;;;9181989;19;20081;-66
2022/08/06 16:27:44;;;;;;;2.58;1.45;;;24.60;46.80;;;;;;9179649;19;20053;-67
2022/08/06 16:30:51;;;;;;;4.38;1.20;;;24.50;46.90;;;;;;9179923;19;20010;-66
2022/08/06 16:34:20;;;;;;;3.33;1.20;;;24.50;46.90;;;;;;9179564;19;20078;-67
2022/08/06 16:37:34;;;;;;;1.90;1.10;;;24.40;46.90;;;;;;9179865;19;20476;-67
2022/08/06 16:40:43;;;;;;;8.95;1.67;;;24.40;47.10;;;;;;9181703;19;20475;-67
2022/08/06 16:44:07;;;;;;;1.73;1.30;;;24.30;47.00;;;;;;9179959;19;20014;-66
2022/08/06 16:47:13;;;;;;;4.47;1.60;;;24.20;47.10;;;;;;9179739;19;20041;-67
2022/08/06 16:50:21;;;;;;;2.90;1.50;;;24.20;47.20;;;;;;9179379;19;20372;-67
2022/08/06 16:53:32;;;;;;;5.07;1.25;;;24.10;47.30;;;;;;9181485;19;20018;-67
2022/08/06 16:56:57;;;;;;;5.97;1.48;;;24.00;47.30;;;;;;9179465;19;20019;-66
2022/08/06 17:00:02;;;;;;;3.90;1.40;;;24.00;47.50;;;;;;9179316;19;20492;-67
2022/08/06 17:03:08;;;;;;;4.57;2.00;;;24.00;47.50;;;;;;9180473;19;20353;-66
2022/08/06 17:06:16;;;;;;;2.90;1.30;;;24.00;47.60;;;;;;9185048;19;20044;-66
2022/08/06 17:09:30;;;;;;;2.75;1.05;;;23.90;47.50;;;;;;9183301;19;20015;-67